createdAt,value
2018-05-08T00:02:07.362Z,4.40
2018-05-08T00:04:34.960Z,4.50
2018-05-08T00:07:01.723Z,5.83
2018-05-08T00:09:28.630Z,3.63
2018-05-08T00:11:56.087Z,6.63
2018-05-08T00:14:23.974Z,3.83
2018-05-08T00:16:51.745Z,4.77
2018-05-08T00:19:18.525Z,6.40
2018-05-08T00:21:45.649Z,4.43
2018-05-08T00:24:13.217Z,5.50
2018-05-08T00:26:40.749Z,10.07
2018-05-08T00:29:07.901Z,10.17
2018-05-08T00:31:34.661Z,29.37
2018-05-08T00:34:01.770Z,13.03
2018-05-08T00:36:28.749Z,19.73
2018-05-08T00:38:56.246Z,28.43
2018-05-08T00:41:23.079Z,9.33
2018-05-08T00:43:50.000Z,9.10
2018-05-08T00:46:17.683Z,10.33
2018-05-08T00:48:45.281Z,10.87
2018-05-08T00:51:12.151Z,7.17
2018-05-08T00:53:39.007Z,7.77
2018-05-08T00:56:06.539Z,5.60
2018-05-08T00:58:33.368Z,6.70
2018-05-08T01:01:00.874Z,6.93
2018-05-08T01:03:28.842Z,4.00
2018-05-08T01:05:55.649Z,4.30
2018-05-08T01:08:22.837Z,3.70
2018-05-08T01:10:49.640Z,6.10
2018-05-08T01:13:17.221Z,4.90
2018-05-08T01:15:44.105Z,35.97
2018-05-08T01:18:10.914Z,8.87
2018-05-08T01:20:37.749Z,4.10
2018-05-08T01:23:04.545Z,3.60
2018-05-08T01:25:32.787Z,2.97
2018-05-08T01:27:59.890Z,3.20
2018-05-08T01:30:28.967Z,3.27
2018-05-08T01:32:56.999Z,3.70
2018-05-08T01:35:24.834Z,3.63
2018-05-08T01:37:51.757Z,3.43
2018-05-08T01:40:19.621Z,3.23
2018-05-08T01:42:46.857Z,6.87
2018-05-08T01:45:13.666Z,5.73
2018-05-08T01:47:40.628Z,3.40
2018-05-08T01:50:07.767Z,3.90
2018-05-08T01:52:34.609Z,3.70
2018-05-08T01:55:02.067Z,3.63
2018-05-08T01:57:29.746Z,4.47
2018-05-08T01:59:56.557Z,3.97
2018-05-08T02:02:24.084Z,4.10
2018-05-08T02:04:50.927Z,4.53
2018-05-08T02:07:18.260Z,4.23
2018-05-08T02:09:45.001Z,3.53
2018-05-08T02:12:12.073Z,3.93
2018-05-08T02:14:39.660Z,3.63
2018-05-08T02:17:06.525Z,3.77
2018-05-08T02:19:34.299Z,3.80
2018-05-08T02:22:01.617Z,3.70
2018-05-08T02:24:28.427Z,4.23
2018-05-08T02:26:55.169Z,3.97
2018-05-08T02:29:22.649Z,3.97
2018-05-08T02:31:49.489Z,4.07
2018-05-08T02:34:16.369Z,4.27
2018-05-08T02:49:43.267Z,4.43
2018-05-08T02:52:10.538Z,4.50
2018-05-08T02:54:37.687Z,4.63
2018-05-08T02:57:04.507Z,4.90
2018-05-08T02:59:33.919Z,5.57
2018-05-08T03:02:01.682Z,5.33
2018-05-08T03:04:28.487Z,4.70
2018-05-08T03:06:55.314Z,5.03
2018-05-08T03:09:22.192Z,5.73
2018-05-08T03:11:49.948Z,5.53
2018-05-08T03:14:17.598Z,5.57
2018-05-08T03:16:44.433Z,6.17
2018-05-08T03:19:12.167Z,5.80
2018-05-08T03:21:39.037Z,6.93
2018-05-08T03:24:06.189Z,6.27
2018-05-08T03:26:33.708Z,5.80
2018-05-08T03:29:00.510Z,6.20
2018-05-08T03:31:27.309Z,6.70
2018-05-08T03:33:54.527Z,6.10
2018-05-08T03:36:21.298Z,6.23
2018-05-08T03:38:48.787Z,5.90
2018-05-08T03:41:15.677Z,6.90
2018-05-08T03:43:43.365Z,5.67
2018-05-08T03:46:11.182Z,6.77
2018-05-08T03:48:37.984Z,6.33
2018-05-08T03:51:06.649Z,5.83
2018-05-08T03:53:33.489Z,5.83
2018-05-08T03:56:00.505Z,6.17
2018-05-08T03:58:27.309Z,5.83
2018-05-08T04:01:00.025Z,6.73
2018-05-08T04:03:33.543Z,6.63
2018-05-08T04:06:05.243Z,6.73
2018-05-08T04:08:32.469Z,6.17
2018-05-08T04:11:00.895Z,6.90
2018-05-08T04:13:28.120Z,6.50
2018-05-08T04:15:54.956Z,7.23
2018-05-08T04:18:22.512Z,7.10
2018-05-08T04:20:49.360Z,7.60
2018-05-08T04:23:16.553Z,7.10
2018-05-08T04:25:44.099Z,6.83
2018-05-08T04:28:11.103Z,7.20
2018-05-08T04:30:37.894Z,7.37
2018-05-08T04:33:05.253Z,7.40
2018-05-08T04:35:32.573Z,7.27
2018-05-08T04:38:00.129Z,7.33
2018-05-08T04:40:27.809Z,7.50
2018-05-08T04:42:54.714Z,7.43
2018-05-08T04:45:22.359Z,7.13
2018-05-08T04:47:49.214Z,7.13
2018-05-08T04:50:25.989Z,7.70
2018-05-08T04:52:52.856Z,7.90
2018-05-08T04:55:19.779Z,7.77
2018-05-08T04:57:46.595Z,8.67
2018-05-08T05:00:13.392Z,7.73
2018-05-08T05:05:26.872Z,7.27
2018-05-08T05:07:55.614Z,7.07
2018-05-08T05:10:23.538Z,7.07
2018-05-08T05:12:50.515Z,7.10
2018-05-08T05:15:17.499Z,7.23
2018-05-08T05:17:44.342Z,7.77
2018-05-08T05:20:21.232Z,9.13
2018-05-08T05:22:48.323Z,7.77
2018-05-08T05:25:15.879Z,8.23
2018-05-08T05:27:42.712Z,7.43
2018-05-08T05:30:09.656Z,7.57
2018-05-08T05:32:37.143Z,7.80
2018-05-08T05:35:04.004Z,7.33
2018-05-08T05:37:31.449Z,8.03
2018-05-08T05:39:59.105Z,7.67
2018-05-08T05:42:25.973Z,7.40
2018-05-08T05:44:52.831Z,8.60
2018-05-08T05:47:19.636Z,9.80
2018-05-08T05:49:46.516Z,8.83
2018-05-08T05:52:13.370Z,9.77
2018-05-08T05:54:40.264Z,9.90
2018-05-08T05:57:07.120Z,10.95
2018-05-08T05:59:34.800Z,8.90
2018-05-08T06:02:01.609Z,9.43
2018-05-08T06:04:28.478Z,9.00
2018-05-08T06:06:55.337Z,9.25
2018-05-08T06:09:23.114Z,10.27
2018-05-08T06:11:50.821Z,8.90
2018-05-08T06:14:17.644Z,9.52
2018-05-08T06:16:45.205Z,9.23
2018-05-08T06:19:12.553Z,8.65
2018-05-08T06:21:39.428Z,7.75
2018-05-08T06:24:06.238Z,9.25
2018-05-08T06:26:44.537Z,7.75
2018-05-08T06:29:11.302Z,7.70
2018-05-08T06:31:38.861Z,7.63
2018-05-08T06:34:05.653Z,7.80
2018-05-08T06:36:33.188Z,6.20
2018-05-08T06:38:59.996Z,6.80
2018-05-08T06:41:28.032Z,5.50
2018-05-08T06:43:54.837Z,6.10
2018-05-08T06:46:21.633Z,6.37
2018-05-08T06:48:48.988Z,6.87
2018-05-08T06:51:15.781Z,6.23
2018-05-08T06:53:42.546Z,7.03
2018-05-08T06:56:10.094Z,5.70
2018-05-08T06:58:36.897Z,5.70
2018-05-08T07:01:03.813Z,6.53
2018-05-08T07:03:30.636Z,6.40
2018-05-08T07:05:57.502Z,5.60
2018-05-08T07:08:24.991Z,6.03
2018-05-08T07:10:52.258Z,6.20
2018-05-08T07:13:19.269Z,5.67
2018-05-08T07:15:46.955Z,4.93
2018-05-08T07:18:14.245Z,4.80
2018-05-08T07:20:51.055Z,4.63
2018-05-08T07:23:18.479Z,4.67
2018-05-08T07:25:46.797Z,4.40
2018-05-08T07:28:14.421Z,4.57
2018-05-08T07:30:41.726Z,4.27
2018-05-08T07:33:08.740Z,4.00
2018-05-08T07:35:35.944Z,4.40
2018-05-08T07:38:03.189Z,3.60
2018-05-08T07:40:30.953Z,4.03
2018-05-08T07:42:58.467Z,3.87
2018-05-08T07:45:25.497Z,4.37
2018-05-08T07:47:52.982Z,3.47
2018-05-08T07:50:20.873Z,3.57
2018-05-08T07:52:47.988Z,3.13
2018-05-08T07:55:15.234Z,3.47
2018-05-08T07:57:42.419Z,3.40
2018-05-08T08:00:10.318Z,3.47
2018-05-08T08:02:37.092Z,3.53
2018-05-08T08:05:03.846Z,4.07
2018-05-08T08:07:30.801Z,3.27
2018-05-08T08:09:57.537Z,3.60
2018-05-08T08:12:24.315Z,3.40
2018-05-08T08:14:51.067Z,3.50
2018-05-08T08:17:17.819Z,3.60
2018-05-08T08:19:44.567Z,3.20
2018-05-08T08:22:11.321Z,3.03
2018-05-08T08:24:38.110Z,2.90
2018-05-08T08:27:04.932Z,3.27
2018-05-08T08:29:31.676Z,3.03
2018-05-08T08:31:58.476Z,3.23
2018-05-08T08:34:25.280Z,3.10
2018-05-08T08:36:52.056Z,2.93
2018-05-08T08:39:18.809Z,3.07
2018-05-08T08:41:45.613Z,3.43
2018-05-08T08:44:12.459Z,2.80
2018-05-08T08:46:40.709Z,2.60
2018-05-08T08:49:07.453Z,2.70
2018-05-08T08:51:34.243Z,3.13
2018-05-08T08:54:01.594Z,3.50
2018-05-08T08:56:28.369Z,3.20
2018-05-08T08:58:55.173Z,3.30
2018-05-08T09:01:21.920Z,3.53
2018-05-08T09:03:48.712Z,3.23
2018-05-08T09:06:15.468Z,2.67
2018-05-08T09:08:42.240Z,3.23
2018-05-08T09:11:09.090Z,2.53
2018-05-08T09:13:35.913Z,3.00
2018-05-08T09:16:02.609Z,3.13
2018-05-08T09:18:29.369Z,3.00
2018-05-08T09:20:56.114Z,3.20
2018-05-08T09:23:22.882Z,3.03
2018-05-08T09:25:49.632Z,3.80
2018-05-08T09:28:16.374Z,2.60
2018-05-08T09:30:43.123Z,3.47
2018-05-08T09:33:10.104Z,3.37
2018-05-08T09:35:36.843Z,2.43
2018-05-08T09:38:03.634Z,2.67
2018-05-08T09:40:30.464Z,3.10
2018-05-08T09:42:57.201Z,2.57
2018-05-08T09:45:23.968Z,2.40
2018-05-08T09:47:50.729Z,2.40
2018-05-08T09:50:17.485Z,2.33
2018-05-08T09:52:44.329Z,2.60
2018-05-08T09:55:11.040Z,3.03
2018-05-08T09:57:38.357Z,2.50
2018-05-08T10:00:06.520Z,3.50
2018-05-08T10:02:33.410Z,2.97
2018-05-08T10:05:01.772Z,2.60
2018-05-08T10:07:28.563Z,3.00
2018-05-08T10:09:55.497Z,2.93
2018-05-08T10:12:24.365Z,2.43
2018-05-08T10:14:51.311Z,2.63
2018-05-08T10:17:19.194Z,3.00
2018-05-08T10:19:46.484Z,2.60
2018-05-08T10:22:14.103Z,2.70
2018-05-08T10:24:41.017Z,2.50
2018-05-08T10:27:08.183Z,2.50
2018-05-08T10:29:35.641Z,2.57
2018-05-08T10:32:12.380Z,2.77
2018-05-08T10:34:40.837Z,2.70
2018-05-08T10:37:08.299Z,2.33
2018-05-08T10:39:35.094Z,2.40
2018-05-08T10:42:02.478Z,2.20
2018-05-08T10:44:29.372Z,2.70
2018-05-08T10:46:56.276Z,2.27
2018-05-08T10:49:23.938Z,2.40
2018-05-08T10:51:51.489Z,2.10
2018-05-08T10:54:18.343Z,2.57
2018-05-08T10:56:45.229Z,2.23
2018-05-08T10:59:13.158Z,2.50
2018-05-08T11:01:40.771Z,2.67
2018-05-08T11:04:08.181Z,2.60
2018-05-08T11:06:34.949Z,3.07
2018-05-08T11:09:02.386Z,2.97
2018-05-08T11:11:29.181Z,2.70
2018-05-08T11:13:56.040Z,3.37
2018-05-08T11:16:23.229Z,2.97
2018-05-08T11:18:50.829Z,2.83
2018-05-08T11:21:18.620Z,2.67
2018-05-08T11:23:46.891Z,2.63
2018-05-08T11:26:14.625Z,2.87
2018-05-08T11:28:42.236Z,2.63
2018-05-08T11:31:09.040Z,2.33
2018-05-08T11:33:47.283Z,2.90
2018-05-08T11:36:14.760Z,2.50
2018-05-08T11:38:42.744Z,3.03
2018-05-08T11:43:56.917Z,2.03
2018-05-08T11:46:24.895Z,2.60
2018-05-08T11:48:51.840Z,2.73
2018-05-08T11:51:19.011Z,2.60
2018-05-08T11:53:45.884Z,2.07
2018-05-08T11:56:12.877Z,2.63
2018-05-08T11:58:47.373Z,2.70
2018-05-08T12:14:22.037Z,2.77
2018-05-08T12:16:52.258Z,2.40
2018-05-08T12:22:50.370Z,2.80
2018-05-08T12:25:18.323Z,2.90
2018-05-08T12:27:45.440Z,2.53
2018-05-08T12:30:15.295Z,2.83
2018-05-08T12:32:42.951Z,2.83
2018-05-08T12:35:10.939Z,2.90
2018-05-08T12:37:38.190Z,3.10
2018-05-08T12:40:05.735Z,3.10
2018-05-08T12:42:34.727Z,2.90
2018-05-08T12:45:02.458Z,2.93
2018-05-08T12:47:30.061Z,3.00
2018-05-08T12:50:01.996Z,2.37
2018-05-08T12:52:29.684Z,3.17
2018-05-08T12:54:56.440Z,3.30
2018-05-08T13:00:10.467Z,2.77
2018-05-08T13:02:37.638Z,3.33
2018-05-08T13:05:15.442Z,3.40
2018-05-08T13:07:42.743Z,3.00
2018-05-08T13:10:10.354Z,4.20
2018-05-08T13:12:37.370Z,3.07
2018-05-08T13:15:04.308Z,3.27
2018-05-08T13:17:31.231Z,4.57
2018-05-08T13:19:58.106Z,3.53
2018-05-08T13:22:34.953Z,3.20
2018-05-08T13:25:02.965Z,3.60
2018-05-08T13:27:30.052Z,3.23
2018-05-08T13:29:57.581Z,3.20
2018-05-08T13:32:25.459Z,2.77
2018-05-08T13:37:38.436Z,3.40
2018-05-08T13:40:06.859Z,2.90
2018-05-08T13:42:34.528Z,3.00
2018-05-08T13:45:11.341Z,3.57
2018-05-08T13:47:39.232Z,3.15
2018-05-08T13:50:06.601Z,2.70
2018-05-08T13:52:34.489Z,3.30
2018-05-08T13:55:02.128Z,3.40
2018-05-08T13:57:30.077Z,3.20
2018-05-08T13:59:58.625Z,3.30
2018-05-08T14:02:26.329Z,3.23
2018-05-08T14:04:54.190Z,3.03
2018-05-08T14:07:22.244Z,4.03
2018-05-08T14:09:51.000Z,2.83
2018-05-08T14:12:18.290Z,3.20
2018-05-08T14:14:46.191Z,3.50
2018-05-08T14:17:14.015Z,2.97
2018-05-08T14:19:42.306Z,3.27
2018-05-08T14:22:09.087Z,2.83
2018-05-08T14:24:37.460Z,3.22
2018-05-08T14:27:06.359Z,2.60
2018-05-08T14:29:33.848Z,2.80
2018-05-08T14:32:11.603Z,3.25
2018-05-08T14:34:38.764Z,2.83
2018-05-08T14:37:05.838Z,3.10
2018-05-08T14:39:33.246Z,3.03
2018-05-08T14:42:01.103Z,2.80
2018-05-08T14:44:29.052Z,2.80
2018-05-08T14:46:57.857Z,3.25
2018-05-08T14:49:24.936Z,3.62
2018-05-08T14:51:54.907Z,3.47
2018-05-08T14:54:22.460Z,3.10
2018-05-08T14:56:50.266Z,3.25
2018-05-08T14:59:18.063Z,3.25
2018-05-08T15:01:45.588Z,2.62
2018-05-08T15:04:13.739Z,3.35
2018-05-08T15:06:41.419Z,3.60
2018-05-08T15:09:08.300Z,3.28
2018-05-08T15:11:35.845Z,3.10
2018-05-08T15:14:02.837Z,3.45
2018-05-08T15:16:29.867Z,3.33
2018-05-08T15:18:57.835Z,3.47
2018-05-08T15:21:24.600Z,3.40
2018-05-08T15:23:52.264Z,3.30
2018-05-08T15:26:20.172Z,3.50
2018-05-08T15:28:47.032Z,3.75
2018-05-08T15:31:14.606Z,3.50
2018-05-08T15:33:41.846Z,3.15
2018-05-08T15:36:09.547Z,3.67
2018-05-08T15:38:37.293Z,4.03
2018-05-08T15:41:07.266Z,3.50
2018-05-08T15:43:45.421Z,3.42
2018-05-08T15:46:12.775Z,3.67
2018-05-08T15:48:39.929Z,3.15
2018-05-08T15:51:08.101Z,3.92
2018-05-08T15:53:35.725Z,3.83
2018-05-08T15:56:03.353Z,4.30
2018-05-08T15:58:31.244Z,4.20
2018-05-08T16:00:58.530Z,4.00
2018-05-08T16:03:25.745Z,3.90
2018-05-08T16:05:54.470Z,4.30
2018-05-08T16:08:21.771Z,4.20
2018-05-08T16:10:49.127Z,4.53
2018-05-08T16:13:16.521Z,4.28
2018-05-08T16:15:44.870Z,4.00
2018-05-08T16:18:12.845Z,3.60
2018-05-08T16:20:41.445Z,4.43
2018-05-08T16:23:19.915Z,4.40
2018-05-08T16:25:47.041Z,3.85
2018-05-08T16:28:14.161Z,4.25
2018-05-08T16:30:42.192Z,4.25
2018-05-08T16:33:09.019Z,4.85
2018-05-08T16:35:38.713Z,4.40
2018-05-08T16:38:05.874Z,4.28
2018-05-08T16:40:33.173Z,4.00
2018-05-08T16:43:00.890Z,4.23
2018-05-08T16:45:30.045Z,3.97
2018-05-08T16:47:58.383Z,3.77
2018-05-08T16:50:25.605Z,3.90
2018-05-08T16:52:52.633Z,3.80
2018-05-08T16:55:19.515Z,3.70
2018-05-08T17:10:47.489Z,3.50
2018-05-08T17:13:14.569Z,3.93
2018-05-08T17:15:41.434Z,3.90
2018-05-08T17:18:08.301Z,3.87
2018-05-08T17:20:45.559Z,4.03
2018-05-08T17:23:12.521Z,3.97
2018-05-08T17:25:39.418Z,4.10
2018-05-08T17:28:06.834Z,4.00
2018-05-08T17:30:34.819Z,3.17
2018-05-08T17:33:01.626Z,3.73
2018-05-08T17:35:28.496Z,3.63
2018-05-08T17:37:55.580Z,3.83
2018-05-08T17:40:23.004Z,4.00
2018-05-08T17:42:51.750Z,4.20
2018-05-08T17:45:18.632Z,3.93
2018-05-08T17:47:47.085Z,3.80
2018-05-08T17:50:13.910Z,4.63
2018-05-08T17:52:40.876Z,3.40
2018-05-08T17:55:07.945Z,4.10
2018-05-08T17:57:35.569Z,4.63
2018-05-08T18:00:04.864Z,4.78
2018-05-08T18:02:31.955Z,4.40
2018-05-08T18:04:59.979Z,4.50
2018-05-08T18:10:22.781Z,4.63
2018-05-08T18:12:50.746Z,4.50
2018-05-08T18:15:18.506Z,4.00
2018-05-08T18:17:45.406Z,4.37
2018-05-08T18:20:13.160Z,3.77
2018-05-08T18:22:40.433Z,4.50
2018-05-08T18:25:07.521Z,5.07
2018-05-08T18:27:35.367Z,4.37
2018-05-08T18:30:03.579Z,4.30
2018-05-08T18:32:31.403Z,5.00
2018-05-08T18:34:58.793Z,4.47
2018-05-08T18:37:25.693Z,4.23
2018-05-08T18:39:52.584Z,4.00
2018-05-08T18:42:20.445Z,4.77
2018-05-08T18:44:47.923Z,5.50
2018-05-08T18:47:15.031Z,4.50
2018-05-08T18:49:42.068Z,4.73
2018-05-08T18:52:09.978Z,4.80
2018-05-08T19:07:37.035Z,4.27
2018-05-08T20:14:53.802Z,6.03
2018-05-08T20:17:23.268Z,5.20
2018-05-08T20:20:00.255Z,6.40
2018-05-08T20:22:27.956Z,5.63
2018-05-08T20:24:56.070Z,5.43
2018-05-08T20:27:23.263Z,6.43
2018-05-08T20:29:52.205Z,7.00
2018-05-08T20:32:23.727Z,6.87
2018-05-08T20:34:52.866Z,6.53
2018-05-08T20:40:00.630Z,6.47
2018-05-08T20:45:07.200Z,6.10
2018-05-08T20:50:30.336Z,6.73
2018-05-08T20:52:59.420Z,6.00
2018-05-08T20:55:28.401Z,4.93
2018-05-08T20:58:02.756Z,5.80
2018-05-08T21:00:30.506Z,5.80
2018-05-08T21:05:47.127Z,6.47
2018-05-08T21:08:14.057Z,5.73
2018-05-08T21:10:41.553Z,7.60
2018-05-08T21:13:08.781Z,7.07
2018-05-08T21:15:36.389Z,5.80
2018-05-08T21:18:03.785Z,6.03
2018-05-08T21:23:09.985Z,6.87
2018-05-08T21:25:37.611Z,6.53
2018-05-08T21:28:10.205Z,7.70
2018-05-08T21:30:55.147Z,6.90
2018-05-08T21:33:21.877Z,7.83
2018-05-08T21:35:48.856Z,8.57
2018-05-08T21:38:15.652Z,8.17
2018-05-08T21:40:44.354Z,8.47
2018-05-08T21:43:16.150Z,9.00
2018-05-08T21:45:43.070Z,8.90
2018-05-08T21:48:09.935Z,8.93
2018-05-08T21:50:37.641Z,9.23
2018-05-08T21:53:07.309Z,8.73
2018-05-08T21:55:34.136Z,10.00
2018-05-08T21:58:00.923Z,9.73
2018-05-08T22:00:29.780Z,8.60
2018-05-08T22:03:07.617Z,8.90
2018-05-08T22:05:34.410Z,8.10
2018-05-08T22:08:01.294Z,9.27
2018-05-08T22:10:29.116Z,8.77
2018-05-08T22:12:56.720Z,8.80
2018-05-08T22:15:25.471Z,8.73
2018-05-08T22:17:53.185Z,8.80
2018-05-08T22:20:20.114Z,8.57
2018-05-08T22:22:47.109Z,8.63
2018-05-08T22:25:13.881Z,8.93
2018-05-08T22:27:43.284Z,9.50
2018-05-08T22:30:11.713Z,9.87
2018-05-08T22:32:38.549Z,9.17
2018-05-08T22:35:05.283Z,9.33
2018-05-08T22:37:33.067Z,9.30
2018-05-08T22:40:00.813Z,9.70
2018-05-08T22:42:37.942Z,9.73
2018-05-08T22:45:05.790Z,9.83
2018-05-08T22:47:32.540Z,9.47
2018-05-08T22:49:59.342Z,10.23
2018-05-08T22:52:26.814Z,9.33
2018-05-08T22:54:54.124Z,10.87
2018-05-08T22:57:21.598Z,10.37
2018-05-08T22:59:48.839Z,9.73
2018-05-08T23:02:15.649Z,9.53
2018-05-08T23:04:42.446Z,10.37
2018-05-08T23:07:10.078Z,10.00
2018-05-08T23:09:36.864Z,10.37
2018-05-08T23:12:04.945Z,11.63
2018-05-08T23:14:31.999Z,10.20
2018-05-08T23:16:58.769Z,10.03
2018-05-08T23:19:26.252Z,11.00
2018-05-08T23:21:53.086Z,10.80
2018-05-08T23:24:20.808Z,10.87
2018-05-08T23:26:48.565Z,10.93
2018-05-08T23:29:15.516Z,10.27
2018-05-08T23:31:42.784Z,10.97
2018-05-08T23:34:09.641Z,10.37
2018-05-08T23:36:36.428Z,10.03
2018-05-08T23:39:03.272Z,10.60
2018-05-08T23:41:30.969Z,10.40
2018-05-08T23:43:58.665Z,9.73
2018-05-08T23:46:26.961Z,8.93
2018-05-08T23:48:53.736Z,9.40
2018-05-08T23:51:21.080Z,9.80
2018-05-08T23:53:48.632Z,8.80
2018-05-08T23:56:15.742Z,9.80
2018-05-08T23:58:42.583Z,9.40
